Baltimore, Maryland
Traffic Map
Current Weather Conditions
Baltimore, Maryland
Few Clouds
Few Clouds
44°
Feels Like: 44°
Wind Chill: 44° Ceiling: Unl
Heat Index: 44° Visibility: 10mi
Dew Point: 31° Wind: 0mph
Humidity: 60% Direction: ° ()
Pressure: 29.74in Gusts: 0mph
Raw Report DataKBWI 270654Z 00000KT 10SM FEW090 07/M01 A2974 RMK AO2 SLP071 T00671006
Traffic Incident Summary
Active as of:
Severity:
Category:
InformationThere was an issue retrieving the traffic information for this location. Please try a different location or try again shortly.
Advertisements
Track Severe Weather on mobile